Star Harmony — 3FZX9 — position and weather

sailwx.info

Track history (hours):
 
Tides and Currents Weather Stations Pressure Air Temp Water Temp Dewpoint Dewpoint Depression Visibility Wind Speed Wind Dir Waves Ship Positions

Star Harmony

Last reported at 2017-Sep-20 19:24 UTC. Time now 2017-Sep-23 00:28 UTC.
Position N 41°22' E 029°00'.

Length 188 m; draft 11.5 m.

Type: Ship. MMSI: 353071000.

Date/timePositionNaut miles runAvg speedWind from/ knotsBaromVisibWave heightAir tempDewpointWater temp
2017-Sep-20 19:24N 41°22' E 029°00'0 0.8
2017-Sep-20 18:57N 41°22' E 029°00'2 4.5
2017-Sep-20 18:26N 41°25' E 028°59'5 4.1
2017-Sep-20 17:17N 41°29' E 028°58'2 1.0
2017-Sep-20 15:26N 41°28' E 029°00'1 1.0
2017-Sep-20 13:56N 41°27' E 029°02'1 1.2
2017-Sep-20 13:30N 41°27' E 029°02'2 4.1
2017-Sep-20 13:00N 41°26' E 028°59'4 7.5
2017-Sep-20 12:29N 41°25' E 028°54'2 3.3
2017-Sep-20 11:52N 41°25' E 028°52'0 0.9
2017-Sep-20 11:30N 41°25' E 028°52'0 0.9
2017-Sep-20 11:00N 41°25' E 028°53'0 0.9
2017-Sep-20 10:26N 41°25' E 028°53'0 0.8
2017-Sep-20 10:00N 41°25' E 028°54'1 0.8
2017-Sep-20 09:21N 41°25' E 028°55'0 0.9
2017-Sep-20 08:55N 41°25' E 028°55'0 0.9
2017-Sep-20 08:30N 41°25' E 028°56'0 0.8
2017-Sep-20 07:58N 41°25' E 028°56'0 0.8
2017-Sep-20 07:28N 41°25' E 028°57'0 0.8
2017-Sep-20 06:58N 41°25' E 028°57'0 0.8
2017-Sep-20 06:26N 41°25' E 028°58'0 0.7
2017-Sep-20 05:58N 41°25' E 028°58'0 0.7
2017-Sep-20 05:30N 41°25' E 028°59'0 0.6
2017-Sep-20 04:57N 41°26' E 028°59'0 0.5
2017-Sep-20 04:28N 41°26' E 028°59'0 0.6
2017-Sep-20 04:00N 41°26' E 028°59'0 0.5
2017-Sep-20 03:19N 41°26' E 028°60'31 6.7
2017-Sep-19 22:47N 41°57' E 029°03'511.1
2017-Sep-19 22:21N 42°01' E 029°02'3210.9
2017-Sep-19 19:27N 42°33' E 028°59'610.9
2017-Sep-19 18:55N 42°39' E 028°58'811.1
2017-Sep-19 18:13N 42°47' E 028°57'311.0
2017-Sep-19 17:57N 42°49' E 028°56'511.1
2017-Sep-19 17:30N 42°54' E 028°56'611.1
2017-Sep-19 16:57N 43°00' E 028°55'3411.1
2017-Sep-19 13:55N 43°34' E 028°51'511.0
2017-Sep-19 13:27N 43°39' E 028°50'510.9
2017-Sep-19 13:00N 43°44' E 028°50'510.6
2017-Sep-19 12:30N 43°49' E 028°49'510.3
2017-Sep-19 12:00N 43°54' E 028°49'510.1
2017-Sep-19 11:30N 43°59' E 028°48'510.6
2017-Sep-19 11:00N 44°04' E 028°43'4 8.4
2017-Sep-19 10:30N 44°07' E 028°41'2 4.4
2017-Sep-19 10:00N 44°09' E 028°40'0 1.0
2017-Sep-19 09:30N 44°09' E 028°39'0 0.0
2017-Sep-19 08:59N 44°09' E 028°39'0 0.0
2017-Sep-19 08:29N 44°09' E 028°39'0 0.0
2017-Sep-19 07:59N 44°09' E 028°39'0 0.0
2017-Sep-19 07:29N 44°09' E 028°39'0 0.0
2017-Sep-19 06:59N 44°09' E 028°39'0 0.0
2017-Sep-19 06:29N 44°09' E 028°39'0 0.0
2017-Sep-19 05:59N 44°09' E 028°39'0 0.0
2017-Sep-19 05:29N 44°09' E 028°39'0 0.0
2017-Sep-19 04:59N 44°09' E 028°39'0 0.0
2017-Sep-19 04:29N 44°09' E 028°39'0 0.0
2017-Sep-19 03:59N 44°09' E 028°39'0 0.0
2017-Sep-19 03:29N 44°09' E 028°39'0 0.0
2017-Sep-19 02:59N 44°09' E 028°39'0 0.0
2017-Sep-19 02:29N 44°09' E 028°39'0 0.0
2017-Sep-19 01:59N 44°09' E 028°39'0 0.0
2017-Sep-19 01:29N 44°09' E 028°39'0 0.0
2017-Sep-19 00:59N 44°09' E 028°39'0 0.0
2017-Sep-19 00:26N 44°09' E 028°39'0 0.0
2017-Sep-18 23:59N 44°09' E 028°39'0 0.0
2017-Sep-18 23:29N 44°09' E 028°39'0 0.0
2017-Sep-18 22:59N 44°09' E 028°39'0 0.0
2017-Sep-18 22:29N 44°09' E 028°39'0 0.0
2017-Sep-18 21:56N 44°09' E 028°39'0 0.0
2017-Sep-18 21:29N 44°09' E 028°39'0 0.0
2017-Sep-18 20:56N 44°09' E 028°39'0 0.0
2017-Sep-18 20:29N 44°09' E 028°39'0 0.0
2017-Sep-18 19:56N 44°09' E 028°39'0 0.0
2017-Sep-18 19:29N 44°09' E 028°39'0 0.0
2017-Sep-18 18:59N 44°09' E 028°39'0 0.0
2017-Sep-18 18:29N 44°09' E 028°39'0 0.0
2017-Sep-18 17:59N 44°09' E 028°39'0 0.0
2017-Sep-18 17:29N 44°09' E 028°39'0 0.0
2017-Sep-18 16:59N 44°09' E 028°39'0 0.0
2017-Sep-18 16:29N 44°09' E 028°39'0 0.0
2017-Sep-18 15:59N 44°09' E 028°39'0 0.0
2017-Sep-18 15:29N 44°09' E 028°39'0 0.0
2017-Sep-18 14:59N 44°09' E 028°39'0 0.0
2017-Sep-18 14:29N 44°09' E 028°39'0 0.0
2017-Sep-18 13:59N 44°09' E 028°39'0 0.0
2017-Sep-18 13:29N 44°09' E 028°39'0 0.0
2017-Sep-18 12:59N 44°09' E 028°39'0 0.0
2017-Sep-18 12:29N 44°09' E 028°39'0 0.0
2017-Sep-18 11:59N 44°09' E 028°39'0 0.0
2017-Sep-18 11:29N 44°09' E 028°39'0 0.0
2017-Sep-18 10:59N 44°09' E 028°39'0 0.0
2017-Sep-18 10:29N 44°09' E 028°39'0 0.0
2017-Sep-18 09:59N 44°09' E 028°39'0 0.0
2017-Sep-18 09:29N 44°09' E 028°39'0 0.0
2017-Sep-18 08:59N 44°09' E 028°39'0 0.0
2017-Sep-18 08:29N 44°09' E 028°39'0 0.0
2017-Sep-18 07:59N 44°09' E 028°39'0 0.0
2017-Sep-18 07:26N 44°09' E 028°39'0 0.0
2017-Sep-18 06:56N 44°09' E 028°39'0 0.0
2017-Sep-18 06:29N 44°09' E 028°39'0 0.0
2017-Sep-18 05:59N 44°09' E 028°39'0 0.0
2017-Sep-18 05:29N 44°09' E 028°39'0 0.0
2017-Sep-18 04:59N 44°09' E 028°39'0 0.0
2017-Sep-18 04:29N 44°09' E 028°39'0 0.0
2017-Sep-18 03:59N 44°09' E 028°39'0 0.0
2017-Sep-18 03:26N 44°09' E 028°39'0 0.0
2017-Sep-18 02:59N 44°09' E 028°39'0 0.0
2017-Sep-18 02:29N 44°09' E 028°39'0 0.0
2017-Sep-18 01:56N 44°09' E 028°39'0 0.0
2017-Sep-18 01:29N 44°09' E 028°39'0 0.0
2017-Sep-18 00:56N 44°09' E 028°39'0 0.0
2017-Sep-18 00:29N 44°09' E 028°39'0 0.0
2017-Sep-17 23:59N 44°09' E 028°39'0 0.0
2017-Sep-17 23:29N 44°09' E 028°39'0 0.0
2017-Sep-17 22:59N 44°09' E 028°39'0 0.0
2017-Sep-17 22:29N 44°09' E 028°39'0 0.0
2017-Sep-17 21:59N 44°09' E 028°39'0 0.0
2017-Sep-17 21:29N 44°09' E 028°39'0 0.0
2017-Sep-17 20:59N 44°09' E 028°39'0 0.0
2017-Sep-17 20:29N 44°09' E 028°39'0 0.0
2017-Sep-17 19:59N 44°09' E 028°39'0 0.0
2017-Sep-17 19:29N 44°09' E 028°39'0 0.0
2017-Sep-17 18:53N 44°09' E 028°39'0 0.0
2017-Sep-17 18:29N 44°09' E 028°39'0 0.0
2017-Sep-17 17:59N 44°09' E 028°39'0 0.0
2017-Sep-17 17:26N 44°09' E 028°39'0 0.0
2017-Sep-17 16:59N 44°09' E 028°39'0 0.0
2017-Sep-17 16:29N 44°09' E 028°39'0 0.0
2017-Sep-17 15:59N 44°09' E 028°39'0 0.0
2017-Sep-17 15:29N 44°09' E 028°39'0 0.0
2017-Sep-17 14:59N 44°09' E 028°39'0 0.0
2017-Sep-17 14:29N 44°09' E 028°39'0 0.0
2017-Sep-17 13:59N 44°09' E 028°39'0 0.0
2017-Sep-17 13:29N 44°09' E 028°39'0 0.0
2017-Sep-17 12:59N 44°09' E 028°39'0 0.1
2017-Sep-17 12:30N 44°09' E 028°39'1 1.7
2017-Sep-17 12:00N 44°10' E 028°39'0 0.3
2017-Sep-17 11:30N 44°10' E 028°39'0 0.0
2017-Sep-17 10:58N 44°10' E 028°39'0 0.0
2017-Sep-17 10:28N 44°10' E 028°39'0 0.0
2017-Sep-17 09:58N 44°10' E 028°39'0 0.0
2017-Sep-17 09:28N 44°10' E 028°39'0 0.0
2017-Sep-17 08:58N 44°10' E 028°39'0 0.0
2017-Sep-17 08:28N 44°10' E 028°39'0 0.0
2017-Sep-17 07:58N 44°10' E 028°39'0 0.0
2017-Sep-17 07:28N 44°10' E 028°39'0 0.0
2017-Sep-17 06:58N 44°10' E 028°39'0 0.0
2017-Sep-17 06:28N 44°10' E 028°39'0 0.0
2017-Sep-17 05:34N 44°10' E 028°39'0 0.0
2017-Sep-17 05:28N 44°10' E 028°39'0 0.0
2017-Sep-17 04:58N 44°10' E 028°39'0 0.0
2017-Sep-17 04:28N 44°10' E 028°39'0 0.0
2017-Sep-17 03:58N 44°10' E 028°39'0 0.0
2017-Sep-17 03:28N 44°10' E 028°39'0 0.0
2017-Sep-17 02:58N 44°10' E 028°39'0 0.0
2017-Sep-17 02:28N 44°10' E 028°39'0 0.0
2017-Sep-17 01:58N 44°10' E 028°39'0 0.0
2017-Sep-17 01:28N 44°10' E 028°39'0 0.0
2017-Sep-17 00:58N 44°10' E 028°39'0 0.0
2017-Sep-17 00:28N 44°10' E 028°39'0 0.0
2017-Sep-16 23:58N 44°10' E 028°39'0 0.0
2017-Sep-16 23:28N 44°10' E 028°39'0 0.0
2017-Sep-16 22:58N 44°10' E 028°39'0 0.0
2017-Sep-16 22:28N 44°10' E 028°39'0 0.0
2017-Sep-16 21:58N 44°10' E 028°39'0 0.0
2017-Sep-16 21:28N 44°10' E 028°39'0 0.0
2017-Sep-16 20:58N 44°10' E 028°39'0 0.0
2017-Sep-16 20:25N 44°10' E 028°39'0 0.0
2017-Sep-16 19:58N 44°10' E 028°39'0 0.0
2017-Sep-16 19:28N 44°10' E 028°39'0 0.0
2017-Sep-16 18:58N 44°10' E 028°39'0 0.0
2017-Sep-16 18:25N 44°10' E 028°39'0 0.0
2017-Sep-16 17:55N 44°10' E 028°39'0 0.0
2017-Sep-16 17:25N 44°10' E 028°39'0 0.0
2017-Sep-16 16:58N 44°10' E 028°39'0 0.0
2017-Sep-16 16:28N 44°10' E 028°39'0 0.0
2017-Sep-16 15:58N 44°10' E 028°39'0 0.0
2017-Sep-16 15:28N 44°10' E 028°39'0 0.0
2017-Sep-16 14:58N 44°10' E 028°39'0 0.0
2017-Sep-16 14:28N 44°10' E 028°39'0 0.0
2017-Sep-16 13:58N 44°10' E 028°39'0 0.0
2017-Sep-16 13:28N 44°10' E 028°39'0 0.0
2017-Sep-16 12:58N 44°10' E 028°39'0 0.0
2017-Sep-16 12:28N 44°10' E 028°39'0 0.0
2017-Sep-16 11:58N 44°10' E 028°39'0 0.0
2017-Sep-16 11:28N 44°10' E 028°39'0 0.0
2017-Sep-16 10:55N 44°10' E 028°39'0 0.0
2017-Sep-16 10:28N 44°10' E 028°39'0 0.0
2017-Sep-16 09:58N 44°10' E 028°39'0 0.0
2017-Sep-16 09:28N 44°10' E 028°39'0 0.0
2017-Sep-16 08:58N 44°10' E 028°39'0 0.0
2017-Sep-16 08:28N 44°10' E 028°39'0 0.0
2017-Sep-16 07:58N 44°10' E 028°39'0 0.0
2017-Sep-16 07:28N 44°10' E 028°39'0 0.0
2017-Sep-16 06:58N 44°10' E 028°39'0 0.0
2017-Sep-16 06:28N 44°10' E 028°39'0 0.0
2017-Sep-16 05:58N 44°10' E 028°39'0 0.0
2017-Sep-16 05:28N 44°10' E 028°39'0 0.0
2017-Sep-16 04:58N 44°10' E 028°39'0 0.0
2017-Sep-16 04:25N 44°10' E 028°39'0 0.0
2017-Sep-16 03:52N 44°10' E 028°39'0 0.0
2017-Sep-16 03:28N 44°10' E 028°39'0 0.0
2017-Sep-16 02:58N 44°10' E 028°39'0 0.0
2017-Sep-16 02:26N 44°10' E 028°39'0 0.0
2017-Sep-16 01:58N 44°10' E 028°39'0 0.0
2017-Sep-16 01:28N 44°10' E 028°39'0 0.0
2017-Sep-16 00:55N 44°10' E 028°39'0 0.0
2017-Sep-16 00:28N 44°10' E 028°39'0 0.0
2017-Sep-15 23:58N 44°10' E 028°39'0 0.0
2017-Sep-15 23:25N 44°10' E 028°39'0 0.0
2017-Sep-15 22:58N 44°10' E 028°39'0 0.0
2017-Sep-15 22:28N 44°10' E 028°39'0 0.0
2017-Sep-15 21:58N 44°10' E 028°39'0 0.0
2017-Sep-15 21:28N 44°10' E 028°39'0 0.0
2017-Sep-15 20:58N 44°10' E 028°39'0 0.0
2017-Sep-15 20:28N 44°10' E 028°39'0 0.0
2017-Sep-15 19:58N 44°10' E 028°39'0 0.0
2017-Sep-15 19:28N 44°10' E 028°39'0 0.0
2017-Sep-15 18:58N 44°10' E 028°39'0 0.0
2017-Sep-15 18:28N 44°10' E 028°39'0 0.0
2017-Sep-15 17:55N 44°10' E 028°39'0 0.0
2017-Sep-15 17:28N 44°10' E 028°39'0 0.0
2017-Sep-15 16:58N 44°10' E 028°39'0 0.0
2017-Sep-15 16:28N 44°10' E 028°39'0 0.0
2017-Sep-15 15:58N 44°10' E 028°39'0 0.0
2017-Sep-15 15:28N 44°10' E 028°39'0 0.0
2017-Sep-15 14:58N 44°10' E 028°39'0 0.0
2017-Sep-15 14:25N 44°10' E 028°39'0 0.0
2017-Sep-15 13:58N 44°10' E 028°39'0 0.0
2017-Sep-15 13:28N 44°10' E 028°39'0 0.0
2017-Sep-15 12:58N 44°10' E 028°39'0 0.0
2017-Sep-15 12:28N 44°10' E 028°39'0 0.0
2017-Sep-15 11:58N 44°10' E 028°39'0 0.0
2017-Sep-15 11:28N 44°10' E 028°39'0 0.0
2017-Sep-15 10:58N 44°10' E 028°39'0 0.0
2017-Sep-15 10:28N 44°10' E 028°39'0 0.0
2017-Sep-15 09:58N 44°10' E 028°39'0 0.0
2017-Sep-15 09:28N 44°10' E 028°39'0 0.0
2017-Sep-15 08:58N 44°10' E 028°39'0 0.0
2017-Sep-15 08:25N 44°10' E 028°39'0 0.0
2017-Sep-15 07:58N 44°10' E 028°39'0 0.0
2017-Sep-15 07:28N 44°10' E 028°39'0 0.0
2017-Sep-15 06:58N 44°10' E 028°39'0 0.0
2017-Sep-15 06:28N 44°10' E 028°39'0 0.0
2017-Sep-15 05:58N 44°10' E 028°39'0 0.0
2017-Sep-15 05:28N 44°10' E 028°39'0 0.0
2017-Sep-15 04:58N 44°10' E 028°39'0 0.0
2017-Sep-15 04:19N 44°10' E 028°39'0 0.0
2017-Sep-15 03:40N 44°10' E 028°39'0 0.0
2017-Sep-15 03:19N 44°10' E 028°39'0 0.0
2017-Sep-15 02:55N 44°10' E 028°39'0 0.0
2017-Sep-15 02:22N 44°10' E 028°39'0 0.0
2017-Sep-15 01:52N 44°10' E 028°39'0 0.0
2017-Sep-15 01:22N 44°10' E 028°39'0 0.0
2017-Sep-15 00:58N 44°10' E 028°39'0 0.0
2017-Sep-15 00:28N 44°10' E 028°39'0 0.0
2017-Sep-14 23:58N 44°10' E 028°39'0 0.0
2017-Sep-14 23:28N 44°10' E 028°39'0 0.0
2017-Sep-14 22:58N 44°10' E 028°39'0 0.0
2017-Sep-14 22:28N 44°10' E 028°39'0 0.0
2017-Sep-14 21:58N 44°10' E 028°39'0 0.0
2017-Sep-14 21:28N 44°10' E 028°39'0 0.0
2017-Sep-14 20:58N 44°10' E 028°39'0 0.0
2017-Sep-14 20:28N 44°10' E 028°39'0 0.0
2017-Sep-14 19:58N 44°10' E 028°39'0 0.0
2017-Sep-14 19:28N 44°10' E 028°39'0 0.0
2017-Sep-14 18:58N 44°10' E 028°39'0 0.0
2017-Sep-14 18:28N 44°10' E 028°39'0 0.0
2017-Sep-14 17:58N 44°10' E 028°39'0 0.0
2017-Sep-14 17:25N 44°10' E 028°39'0 0.0
2017-Sep-14 16:58N 44°10' E 028°39'0 0.0
2017-Sep-14 16:28N 44°10' E 028°39'0 0.0
2017-Sep-14 15:58N 44°10' E 028°39'0 0.0
2017-Sep-14 15:28N 44°10' E 028°39'0 0.0
2017-Sep-14 14:58N 44°10' E 028°39'0 0.0
2017-Sep-14 14:28N 44°10' E 028°39'0 0.0
2017-Sep-14 13:58N 44°10' E 028°39'0 0.0
2017-Sep-14 13:25N 44°10' E 028°39'0 0.0
2017-Sep-14 12:58N 44°10' E 028°39'0 0.0
2017-Sep-14 12:28N 44°10' E 028°39'0 0.0
2017-Sep-14 11:58N 44°10' E 028°39'0 0.0
2017-Sep-14 11:28N 44°10' E 028°39'0 0.0
2017-Sep-14 10:52N 44°10' E 028°39'0 0.0
2017-Sep-14 10:28N 44°10' E 028°39'0 0.0
2017-Sep-14 09:58N 44°10' E 028°39'0 0.0
2017-Sep-14 09:28N 44°10' E 028°39'0 0.0
2017-Sep-14 08:58N 44°10' E 028°39'0 0.0
2017-Sep-14 08:28N 44°10' E 028°39'0 0.0
2017-Sep-14 07:58N 44°10' E 028°39'0 0.0
2017-Sep-14 07:28N 44°10' E 028°39'0 0.0
2017-Sep-14 06:58N 44°10' E 028°39'0 0.0
2017-Sep-14 06:28N 44°10' E 028°39'0 0.0
2017-Sep-14 05:58N 44°10' E 028°39'0 0.0
2017-Sep-14 05:28N 44°10' E 028°39'0 0.0
2017-Sep-14 04:58N 44°10' E 028°39'0 0.0
2017-Sep-14 04:28N 44°10' E 028°39'0 0.0
2017-Sep-14 03:58N 44°10' E 028°39'0 0.0
2017-Sep-14 03:22N 44°10' E 028°39'0 0.0
2017-Sep-14 02:55N 44°10' E 028°39'0 0.0
2017-Sep-14 02:28N 44°10' E 028°39'0 0.0
2017-Sep-14 01:58N 44°10' E 028°39'0 0.0
2017-Sep-14 01:28N 44°10' E 028°39'0 0.0
2017-Sep-14 00:58N 44°10' E 028°39'0 0.0
2017-Sep-14 00:28N 44°10' E 028°39'0 0.0
2017-Sep-13 23:58N 44°10' E 028°39'0 0.0
2017-Sep-13 23:28N 44°10' E 028°39'0 0.0
2017-Sep-13 22:58N 44°10' E 028°39'0 0.0
2017-Sep-13 22:28N 44°10' E 028°39'0 0.0
2017-Sep-13 21:58N 44°10' E 028°39'0 0.0
2017-Sep-13 21:28N 44°10' E 028°39'0 0.0
2017-Sep-13 20:58N 44°10' E 028°39'0 0.0
2017-Sep-13 20:28N 44°10' E 028°39'0 0.0
2017-Sep-13 19:58N 44°10' E 028°39'0 0.0
2017-Sep-13 19:28N 44°10' E 028°39'0 0.0
2017-Sep-13 18:52N 44°10' E 028°39'0 0.0
2017-Sep-13 18:28N 44°10' E 028°39'0 0.0
2017-Sep-13 17:58N 44°10' E 028°39'0 0.0
2017-Sep-13 17:28N 44°10' E 028°39'0 0.0
2017-Sep-13 16:58N 44°10' E 028°39'0 0.0
2017-Sep-13 16:28N 44°10' E 028°39'0 0.0
2017-Sep-13 15:58N 44°10' E 028°39'0 0.0
2017-Sep-13 15:28N 44°10' E 028°39'0 0.0
2017-Sep-13 14:55N 44°10' E 028°39'0 0.0
2017-Sep-13 14:28N 44°10' E 028°39'0 0.0
2017-Sep-13 13:58N 44°10' E 028°39'0 0.0
2017-Sep-13 13:28N 44°10' E 028°39'0 0.0
2017-Sep-13 12:55N 44°10' E 028°39'0 0.0
2017-Sep-13 12:28N 44°10' E 028°39'0 0.0
2017-Sep-13 11:58N 44°10' E 028°39'0 0.0
2017-Sep-13 11:28N 44°10' E 028°39'0 0.0
2017-Sep-13 10:58N 44°10' E 028°39'0 0.0
2017-Sep-13 10:28N 44°10' E 028°39'0 0.0
2017-Sep-13 09:58N 44°10' E 028°39'0 0.0
2017-Sep-13 09:28N 44°10' E 028°39'0 0.0
2017-Sep-13 08:55N 44°10' E 028°39'0 0.0
2017-Sep-13 08:28N 44°10' E 028°39'0 0.0
2017-Sep-13 07:55N 44°10' E 028°39'0 0.0
2017-Sep-13 07:28N 44°10' E 028°39'0 0.0
2017-Sep-13 06:58N 44°10' E 028°39'0 0.0
2017-Sep-13 06:28N 44°10' E 028°39'0 0.0
2017-Sep-13 05:58N 44°10' E 028°39'0 0.0
2017-Sep-13 05:28N 44°10' E 028°39'0 0.0
2017-Sep-13 04:58N 44°10' E 028°39'0 0.0
2017-Sep-13 04:28N 44°10' E 028°39'0 0.0
2017-Sep-13 03:58N 44°10' E 028°39'0 0.0
2017-Sep-13 03:28N 44°10' E 028°39'0 0.0
2017-Sep-13 02:58N 44°10' E 028°39'0 0.0
2017-Sep-13 02:28N 44°10' E 028°39'0 0.0
2017-Sep-13 01:58N 44°10' E 028°39'0 0.0
2017-Sep-13 01:28N 44°10' E 028°39'0 0.0
2017-Sep-13 00:55N 44°10' E 028°39'0 0.0
2017-Sep-13 00:28N 44°10' E 028°39'0 0.0
2017-Sep-12 23:58N 44°10' E 028°39'0 0.0
2017-Sep-12 23:28N 44°10' E 028°39'0 0.0
2017-Sep-12 22:58N 44°10' E 028°39'0 0.0
2017-Sep-12 22:28N 44°10' E 028°39'0 0.0
2017-Sep-12 21:58N 44°10' E 028°39'0 0.0
2017-Sep-12 21:28N 44°10' E 028°39'0 0.0
2017-Sep-12 20:58N 44°10' E 028°39'0 0.0
2017-Sep-12 20:28N 44°10' E 028°39'0 0.0
2017-Sep-12 19:58N 44°10' E 028°39'0 0.0
2017-Sep-12 19:28N 44°10' E 028°39'0 0.0
2017-Sep-12 18:58N 44°10' E 028°39'0 0.0
2017-Sep-12 18:28N 44°10' E 028°39'0 0.0
2017-Sep-12 17:58N 44°10' E 028°39'0 0.3
2017-Sep-12 17:30N 44°10' E 028°39'1 2.4
2017-Sep-12 17:00N 44°09' E 028°40'2 4.2
2017-Sep-12 16:30N 44°07' E 028°42'3 5.6
2017-Sep-12 16:00N 44°05' E 028°44'3 6.1
2017-Sep-12 15:30N 44°08' E 028°47'0 0.2
2017-Sep-12 14:58N 44°08' E 028°47'0 0.1
2017-Sep-12 14:28N 44°08' E 028°47'0 0.0
2017-Sep-12 13:58N 44°08' E 028°47'0 0.0
2017-Sep-12 13:28N 44°08' E 028°47'0 0.0
2017-Sep-12 12:58N 44°08' E 028°47'0 0.0
2017-Sep-12 12:28N 44°08' E 028°47'0 0.1
2017-Sep-12 11:58N 44°08' E 028°47'0 0.0
2017-Sep-12 11:28N 44°08' E 028°47'0 0.0
2017-Sep-12 10:58N 44°08' E 028°47'0 0.1
2017-Sep-12 10:28N 44°08' E 028°47'0 0.0
2017-Sep-12 09:58N 44°08' E 028°47'0 0.0
2017-Sep-12 09:28N 44°08' E 028°47'0 0.1
2017-Sep-12 08:58N 44°08' E 028°47'0 0.0
2017-Sep-12 08:28N 44°08' E 028°47'0 0.0
2017-Sep-12 07:58N 44°08' E 028°47'0 0.1
2017-Sep-12 07:28N 44°08' E 028°47'0 0.1
2017-Sep-12 06:58N 44°08' E 028°47'0 0.0
2017-Sep-12 06:28N 44°08' E 028°47'0 0.0
2017-Sep-12 05:46N 44°08' E 028°47'0 0.1
2017-Sep-12 05:28N 44°08' E 028°47'0 0.0
2017-Sep-12 04:58N 44°08' E 028°47'0 0.1
2017-Sep-12 04:28N 44°08' E 028°47'0 0.0
2017-Sep-12 03:58N 44°08' E 028°47'0 0.1
2017-Sep-12 03:28N 44°08' E 028°47'0 0.1
2017-Sep-12 02:58N 44°08' E 028°47'0 0.0
2017-Sep-12 02:28N 44°08' E 028°47'0 0.0
2017-Sep-12 01:52N 44°08' E 028°47'0 0.1
2017-Sep-12 01:28N 44°08' E 028°47'0 0.0
2017-Sep-12 00:58N 44°08' E 028°47'0 0.0
2017-Sep-12 00:28N 44°08' E 028°47'0 0.0
2017-Sep-11 23:58N 44°08' E 028°47'0 0.0
2017-Sep-11 23:28N 44°08' E 028°47'0 0.0
2017-Sep-11 22:55N 44°08' E 028°47'0 0.1
2017-Sep-11 22:28N 44°08' E 028°47'0 0.0
2017-Sep-11 21:58N 44°08' E 028°47'0 0.0
2017-Sep-11 21:28N 44°08' E 028°47'0 0.0
2017-Sep-11 20:58N 44°08' E 028°47'0 0.0
2017-Sep-11 20:28N 44°08' E 028°47'0 0.0
2017-Sep-11 19:58N 44°08' E 028°47'0 0.0
2017-Sep-11 19:25N 44°08' E 028°47'0 0.0
2017-Sep-11 18:58N 44°08' E 028°47'0 0.0
2017-Sep-11 18:19N 44°08' E 028°47'0 0.0
2017-Sep-11 17:58N 44°08' E 028°47'0 0.0
2017-Sep-11 17:25N 44°08' E 028°47'0 0.0
2017-Sep-11 16:58N 44°08' E 028°47'0 0.0
2017-Sep-11 16:28N 44°08' E 028°47'0 0.0
2017-Sep-11 15:58N 44°08' E 028°47'0 0.1
2017-Sep-11 15:25N 44°08' E 028°47'0 0.0
2017-Sep-11 14:58N 44°08' E 028°47'0 0.1
2017-Sep-11 14:28N 44°08' E 028°47'0 0.0
2017-Sep-11 13:58N 44°08' E 028°47'0 0.1
2017-Sep-11 13:25N 44°08' E 028°47'0 0.1
2017-Sep-11 12:58N 44°08' E 028°47'0 0.1
2017-Sep-11 12:28N 44°08' E 028°47'0 0.0
2017-Sep-11 11:58N 44°08' E 028°47'0 0.0
2017-Sep-11 11:28N 44°08' E 028°47'0 0.0
2017-Sep-11 10:58N 44°08' E 028°47'0 0.0
2017-Sep-11 10:28N 44°08' E 028°47'0 0.0
2017-Sep-11 09:58N 44°08' E 028°47'0 0.0
2017-Sep-11 09:28N 44°08' E 028°47'0 0.0
2017-Sep-11 08:46N 44°08' E 028°47'0 0.0
2017-Sep-11 08:28N 44°08' E 028°47'0 0.0
2017-Sep-11 07:58N 44°08' E 028°47'0 0.0
2017-Sep-11 07:28N 44°08' E 028°47'0 0.0
2017-Sep-11 06:58N 44°08' E 028°47'0 0.0
2017-Sep-11 06:28N 44°08' E 028°47'0 0.0
2017-Sep-11 05:58N 44°08' E 028°47'0 0.0
2017-Sep-11 05:28N 44°08' E 028°47'0 0.0
2017-Sep-11 04:58N 44°08' E 028°47'0 0.0
2017-Sep-11 04:28N 44°08' E 028°47'0 0.0
2017-Sep-11 03:58N 44°08' E 028°47'0 0.1
2017-Sep-11 03:28N 44°08' E 028°47'0 0.0
2017-Sep-11 02:58N 44°08' E 028°47'0 0.0
2017-Sep-11 02:28N 44°08' E 028°47'0 0.0
2017-Sep-11 01:55N 44°08' E 028°47'0 0.0
2017-Sep-11 01:28N 44°08' E 028°47'0 0.0
2017-Sep-11 00:58N 44°08' E 028°47'0 0.0
2017-Sep-11 00:28N 44°08' E 028°47'0 0.0
2017-Sep-10 23:58N 44°08' E 028°47'0 0.0
2017-Sep-10 23:25N 44°08' E 028°47'0 0.0
2017-Sep-10 22:58N 44°08' E 028°47'0 0.0
2017-Sep-10 22:28N 44°08' E 028°47'0 0.0
2017-Sep-10 21:58N 44°08' E 028°47'0 0.1
2017-Sep-10 21:28N 44°08' E 028°47'0 0.1
2017-Sep-10 20:55N 44°08' E 028°47'0 0.1
2017-Sep-10 20:28N 44°08' E 028°47'0 0.1
2017-Sep-10 19:55N 44°08' E 028°47'0 0.1
2017-Sep-10 19:25N 44°08' E 028°47'  
Track history (hours):
 
Tides and Currents Weather Stations Pressure Air Temp Water Temp Dewpoint Dewpoint Depression Visibility Wind Speed Wind Dir Waves Ship Positions

Star Harmony

Last reported at 2017-Sep-20 19:24 UTC. Time now 2017-Sep-23 00:28 UTC.
Position N 41°22' E 029°00'.

Length 188 m; draft 11.5 m.

Type: Ship. MMSI: 353071000.

Date/timePositionNaut miles runAvg speedWind from/ knotsBaromVisibWave heightAir tempDewpointWater temp
2017-Sep-20 19:24N 41°22' E 029°00'0 0.8
2017-Sep-20 18:57N 41°22' E 029°00'2 4.5
2017-Sep-20 18:26N 41°25' E 028°59'5 4.1
2017-Sep-20 17:17N 41°29' E 028°58'2 1.0
2017-Sep-20 15:26N 41°28' E 029°00'1 1.0
2017-Sep-20 13:56N 41°27' E 029°02'1 1.2
2017-Sep-20 13:30N 41°27' E 029°02'2 4.1
2017-Sep-20 13:00N 41°26' E 028°59'4 7.5
2017-Sep-20 12:29N 41°25' E 028°54'2 3.3
2017-Sep-20 11:52N 41°25' E 028°52'0 0.9
2017-Sep-20 11:30N 41°25' E 028°52'0 0.9
2017-Sep-20 11:00N 41°25' E 028°53'0 0.9
2017-Sep-20 10:26N 41°25' E 028°53'0 0.8
2017-Sep-20 10:00N 41°25' E 028°54'1 0.8
2017-Sep-20 09:21N 41°25' E 028°55'0 0.9
2017-Sep-20 08:55N 41°25' E 028°55'0 0.9
2017-Sep-20 08:30N 41°25' E 028°56'0 0.8
2017-Sep-20 07:58N 41°25' E 028°56'0 0.8
2017-Sep-20 07:28N 41°25' E 028°57'0 0.8
2017-Sep-20 06:58N 41°25' E 028°57'0 0.8
2017-Sep-20 06:26N 41°25' E 028°58'0 0.7
2017-Sep-20 05:58N 41°25' E 028°58'0 0.7
2017-Sep-20 05:30N 41°25' E 028°59'0 0.6
2017-Sep-20 04:57N 41°26' E 028°59'0 0.5
2017-Sep-20 04:28N 41°26' E 028°59'0 0.6
2017-Sep-20 04:00N 41°26' E 028°59'0 0.5
2017-Sep-20 03:19N 41°26' E 028°60'31 6.7
2017-Sep-19 22:47N 41°57' E 029°03'511.1
2017-Sep-19 22:21N 42°01' E 029°02'3210.9
2017-Sep-19 19:27N 42°33' E 028°59'610.9
2017-Sep-19 18:55N 42°39' E 028°58'811.1
2017-Sep-19 18:13N 42°47' E 028°57'311.0
2017-Sep-19 17:57N 42°49' E 028°56'511.1
2017-Sep-19 17:30N 42°54' E 028°56'611.1
2017-Sep-19 16:57N 43°00' E 028°55'3411.1
2017-Sep-19 13:55N 43°34' E 028°51'511.0
2017-Sep-19 13:27N 43°39' E 028°50'510.9
2017-Sep-19 13:00N 43°44' E 028°50'510.6
2017-Sep-19 12:30N 43°49' E 028°49'510.3
2017-Sep-19 12:00N 43°54' E 028°49'510.1
2017-Sep-19 11:30N 43°59' E 028°48'510.6
2017-Sep-19 11:00N 44°04' E 028°43'4 8.4
2017-Sep-19 10:30N 44°07' E 028°41'2 4.4
2017-Sep-19 10:00N 44°09' E 028°40'0 1.0
2017-Sep-19 09:30N 44°09' E 028°39'0 0.0
2017-Sep-19 08:59N 44°09' E 028°39'0 0.0
2017-Sep-19 08:29N 44°09' E 028°39'0 0.0
2017-Sep-19 07:59N 44°09' E 028°39'0 0.0
2017-Sep-19 07:29N 44°09' E 028°39'0 0.0
2017-Sep-19 06:59N 44°09' E 028°39'0 0.0
2017-Sep-19 06:29N 44°09' E 028°39'0 0.0
2017-Sep-19 05:59N 44°09' E 028°39'0 0.0
2017-Sep-19 05:29N 44°09' E 028°39'0 0.0
2017-Sep-19 04:59N 44°09' E 028°39'0 0.0
2017-Sep-19 04:29N 44°09' E 028°39'0 0.0
2017-Sep-19 03:59N 44°09' E 028°39'0 0.0
2017-Sep-19 03:29N 44°09' E 028°39'0 0.0
2017-Sep-19 02:59N 44°09' E 028°39'0 0.0
2017-Sep-19 02:29N 44°09' E 028°39'0 0.0
2017-Sep-19 01:59N 44°09' E 028°39'0 0.0
2017-Sep-19 01:29N 44°09' E 028°39'0 0.0
2017-Sep-19 00:59N 44°09' E 028°39'0 0.0
2017-Sep-19 00:26N 44°09' E 028°39'0 0.0
2017-Sep-18 23:59N 44°09' E 028°39'0 0.0
2017-Sep-18 23:29N 44°09' E 028°39'0 0.0
2017-Sep-18 22:59N 44°09' E 028°39'0 0.0
2017-Sep-18 22:29N 44°09' E 028°39'0 0.0
2017-Sep-18 21:56N 44°09' E 028°39'0 0.0
2017-Sep-18 21:29N 44°09' E 028°39'0 0.0
2017-Sep-18 20:56N 44°09' E 028°39'0 0.0
2017-Sep-18 20:29N 44°09' E 028°39'0 0.0
2017-Sep-18 19:56N 44°09' E 028°39'0 0.0
2017-Sep-18 19:29N 44°09' E 028°39'0 0.0
2017-Sep-18 18:59N 44°09' E 028°39'0 0.0
2017-Sep-18 18:29N 44°09' E 028°39'0 0.0
2017-Sep-18 17:59N 44°09' E 028°39'0 0.0
2017-Sep-18 17:29N 44°09' E 028°39'0 0.0
2017-Sep-18 16:59N 44°09' E 028°39'0 0.0
2017-Sep-18 16:29N 44°09' E 028°39'0 0.0
2017-Sep-18 15:59N 44°09' E 028°39'0 0.0
2017-Sep-18 15:29N 44°09' E 028°39'0 0.0
2017-Sep-18 14:59N 44°09' E 028°39'0 0.0
2017-Sep-18 14:29N 44°09' E 028°39'0 0.0
2017-Sep-18 13:59N 44°09' E 028°39'0 0.0
2017-Sep-18 13:29N 44°09' E 028°39'0 0.0
2017-Sep-18 12:59N 44°09' E 028°39'0 0.0
2017-Sep-18 12:29N 44°09' E 028°39'0 0.0
2017-Sep-18 11:59N 44°09' E 028°39'0 0.0
2017-Sep-18 11:29N 44°09' E 028°39'0 0.0
2017-Sep-18 10:59N 44°09' E 028°39'0 0.0
2017-Sep-18 10:29N 44°09' E 028°39'0 0.0
2017-Sep-18 09:59N 44°09' E 028°39'0 0.0
2017-Sep-18 09:29N 44°09' E 028°39'0 0.0
2017-Sep-18 08:59N 44°09' E 028°39'0 0.0
2017-Sep-18 08:29N 44°09' E 028°39'0 0.0
2017-Sep-18 07:59N 44°09' E 028°39'0 0.0
2017-Sep-18 07:26N 44°09' E 028°39'0 0.0
2017-Sep-18 06:56N 44°09' E 028°39'0 0.0
2017-Sep-18 06:29N 44°09' E 028°39'0 0.0
2017-Sep-18 05:59N 44°09' E 028°39'0 0.0
2017-Sep-18 05:29N 44°09' E 028°39'0 0.0
2017-Sep-18 04:59N 44°09' E 028°39'0 0.0
2017-Sep-18 04:29N 44°09' E 028°39'0 0.0
2017-Sep-18 03:59N 44°09' E 028°39'0 0.0
2017-Sep-18 03:26N 44°09' E 028°39'0 0.0
2017-Sep-18 02:59N 44°09' E 028°39'0 0.0
2017-Sep-18 02:29N 44°09' E 028°39'0 0.0
2017-Sep-18 01:56N 44°09' E 028°39'0 0.0
2017-Sep-18 01:29N 44°09' E 028°39'0 0.0
2017-Sep-18 00:56N 44°09' E 028°39'0 0.0
2017-Sep-18 00:29N 44°09' E 028°39'0 0.0
2017-Sep-17 23:59N 44°09' E 028°39'0 0.0
2017-Sep-17 23:29N 44°09' E 028°39'0 0.0
2017-Sep-17 22:59N 44°09' E 028°39'0 0.0
2017-Sep-17 22:29N 44°09' E 028°39'0 0.0
2017-Sep-17 21:59N 44°09' E 028°39'0 0.0
2017-Sep-17 21:29N 44°09' E 028°39'0 0.0
2017-Sep-17 20:59N 44°09' E 028°39'0 0.0
2017-Sep-17 20:29N 44°09' E 028°39'0 0.0
2017-Sep-17 19:59N 44°09' E 028°39'0 0.0
2017-Sep-17 19:29N 44°09' E 028°39'0 0.0
2017-Sep-17 18:53N 44°09' E 028°39'0 0.0
2017-Sep-17 18:29N 44°09' E 028°39'0 0.0
2017-Sep-17 17:59N 44°09' E 028°39'0 0.0
2017-Sep-17 17:26N 44°09' E 028°39'0 0.0
2017-Sep-17 16:59N 44°09' E 028°39'0 0.0
2017-Sep-17 16:29N 44°09' E 028°39'0 0.0
2017-Sep-17 15:59N 44°09' E 028°39'0 0.0
2017-Sep-17 15:29N 44°09' E 028°39'0 0.0
2017-Sep-17 14:59N 44°09' E 028°39'0 0.0
2017-Sep-17 14:29N 44°09' E 028°39'0 0.0
2017-Sep-17 13:59N 44°09' E 028°39'0 0.0
2017-Sep-17 13:29N 44°09' E 028°39'0 0.0
2017-Sep-17 12:59N 44°09' E 028°39'0 0.1
2017-Sep-17 12:30N 44°09' E 028°39'1 1.7
2017-Sep-17 12:00N 44°10' E 028°39'0 0.3
2017-Sep-17 11:30N 44°10' E 028°39'0 0.0
2017-Sep-17 10:58N 44°10' E 028°39'0 0.0
2017-Sep-17 10:28N 44°10' E 028°39'0 0.0
2017-Sep-17 09:58N 44°10' E 028°39'0 0.0
2017-Sep-17 09:28N 44°10' E 028°39'0 0.0
2017-Sep-17 08:58N 44°10' E 028°39'0 0.0
2017-Sep-17 08:28N 44°10' E 028°39'0 0.0
2017-Sep-17 07:58N 44°10' E 028°39'0 0.0
2017-Sep-17 07:28N 44°10' E 028°39'0 0.0
2017-Sep-17 06:58N 44°10' E 028°39'0 0.0
2017-Sep-17 06:28N 44°10' E 028°39'0 0.0
2017-Sep-17 05:34N 44°10' E 028°39'0 0.0
2017-Sep-17 05:28N 44°10' E 028°39'0 0.0
2017-Sep-17 04:58N 44°10' E 028°39'0 0.0
2017-Sep-17 04:28N 44°10' E 028°39'0 0.0
2017-Sep-17 03:58N 44°10' E 028°39'0 0.0
2017-Sep-17 03:28N 44°10' E 028°39'0 0.0
2017-Sep-17 02:58N 44°10' E 028°39'0 0.0
2017-Sep-17 02:28N 44°10' E 028°39'0 0.0
2017-Sep-17 01:58N 44°10' E 028°39'0 0.0
2017-Sep-17 01:28N 44°10' E 028°39'0 0.0
2017-Sep-17 00:58N 44°10' E 028°39'0 0.0
2017-Sep-17 00:28N 44°10' E 028°39'0 0.0
2017-Sep-16 23:58N 44°10' E 028°39'0 0.0
2017-Sep-16 23:28N 44°10' E 028°39'0 0.0
2017-Sep-16 22:58N 44°10' E 028°39'0 0.0
2017-Sep-16 22:28N 44°10' E 028°39'0 0.0
2017-Sep-16 21:58N 44°10' E 028°39'0 0.0
2017-Sep-16 21:28N 44°10' E 028°39'0 0.0
2017-Sep-16 20:58N 44°10' E 028°39'0 0.0
2017-Sep-16 20:25N 44°10' E 028°39'0 0.0
2017-Sep-16 19:58N 44°10' E 028°39'0 0.0
2017-Sep-16 19:28N 44°10' E 028°39'0 0.0
2017-Sep-16 18:58N 44°10' E 028°39'0 0.0
2017-Sep-16 18:25N 44°10' E 028°39'0 0.0
2017-Sep-16 17:55N 44°10' E 028°39'0 0.0
2017-Sep-16 17:25N 44°10' E 028°39'0 0.0
2017-Sep-16 16:58N 44°10' E 028°39'0 0.0
2017-Sep-16 16:28N 44°10' E 028°39'0 0.0
2017-Sep-16 15:58N 44°10' E 028°39'0 0.0
2017-Sep-16 15:28N 44°10' E 028°39'0 0.0
2017-Sep-16 14:58N 44°10' E 028°39'0 0.0
2017-Sep-16 14:28N 44°10' E 028°39'0 0.0
2017-Sep-16 13:58N 44°10' E 028°39'0 0.0
2017-Sep-16 13:28N 44°10' E 028°39'0 0.0
2017-Sep-16 12:58N 44°10' E 028°39'0 0.0
2017-Sep-16 12:28N 44°10' E 028°39'0 0.0
2017-Sep-16 11:58N 44°10' E 028°39'0 0.0
2017-Sep-16 11:28N 44°10' E 028°39'0 0.0
2017-Sep-16 10:55N 44°10' E 028°39'0 0.0
2017-Sep-16 10:28N 44°10' E 028°39'0 0.0
2017-Sep-16 09:58N 44°10' E 028°39'0 0.0
2017-Sep-16 09:28N 44°10' E 028°39'0 0.0
2017-Sep-16 08:58N 44°10' E 028°39'0 0.0
2017-Sep-16 08:28N 44°10' E 028°39'0 0.0
2017-Sep-16 07:58N 44°10' E 028°39'0 0.0
2017-Sep-16 07:28N 44°10' E 028°39'0 0.0
2017-Sep-16 06:58N 44°10' E 028°39'0 0.0
2017-Sep-16 06:28N 44°10' E 028°39'0 0.0
2017-Sep-16 05:58N 44°10' E 028°39'0 0.0
2017-Sep-16 05:28N 44°10' E 028°39'0 0.0
2017-Sep-16 04:58N 44°10' E 028°39'0 0.0
2017-Sep-16 04:25N 44°10' E 028°39'0 0.0
2017-Sep-16 03:52N 44°10' E 028°39'0 0.0
2017-Sep-16 03:28N 44°10' E 028°39'0 0.0
2017-Sep-16 02:58N 44°10' E 028°39'0 0.0
2017-Sep-16 02:26N 44°10' E 028°39'0 0.0
2017-Sep-16 01:58N 44°10' E 028°39'0 0.0
2017-Sep-16 01:28N 44°10' E 028°39'0 0.0
2017-Sep-16 00:55N 44°10' E 028°39'0 0.0
2017-Sep-16 00:28N 44°10' E 028°39'0 0.0
2017-Sep-15 23:58N 44°10' E 028°39'0 0.0
2017-Sep-15 23:25N 44°10' E 028°39'0 0.0
2017-Sep-15 22:58N 44°10' E 028°39'0 0.0
2017-Sep-15 22:28N 44°10' E 028°39'0 0.0
2017-Sep-15 21:58N 44°10' E 028°39'0 0.0
2017-Sep-15 21:28N 44°10' E 028°39'0 0.0
2017-Sep-15 20:58N 44°10' E 028°39'0 0.0
2017-Sep-15 20:28N 44°10' E 028°39'0 0.0
2017-Sep-15 19:58N 44°10' E 028°39'0 0.0
2017-Sep-15 19:28N 44°10' E 028°39'0 0.0
2017-Sep-15 18:58N 44°10' E 028°39'0 0.0
2017-Sep-15 18:28N 44°10' E 028°39'0 0.0
2017-Sep-15 17:55N 44°10' E 028°39'0 0.0
2017-Sep-15 17:28N 44°10' E 028°39'0 0.0
2017-Sep-15 16:58N 44°10' E 028°39'0 0.0
2017-Sep-15 16:28N 44°10' E 028°39'0 0.0
2017-Sep-15 15:58N 44°10' E 028°39'0 0.0
2017-Sep-15 15:28N 44°10' E 028°39'0 0.0
2017-Sep-15 14:58N 44°10' E 028°39'0 0.0
2017-Sep-15 14:25N 44°10' E 028°39'0 0.0
2017-Sep-15 13:58N 44°10' E 028°39'0 0.0
2017-Sep-15 13:28N 44°10' E 028°39'0 0.0
2017-Sep-15 12:58N 44°10' E 028°39'0 0.0
2017-Sep-15 12:28N 44°10' E 028°39'0 0.0
2017-Sep-15 11:58N 44°10' E 028°39'0 0.0
2017-Sep-15 11:28N 44°10' E 028°39'0 0.0
2017-Sep-15 10:58N 44°10' E 028°39'0 0.0
2017-Sep-15 10:28N 44°10' E 028°39'0 0.0
2017-Sep-15 09:58N 44°10' E 028°39'0 0.0
2017-Sep-15 09:28N 44°10' E 028°39'0 0.0
2017-Sep-15 08:58N 44°10' E 028°39'0 0.0
2017-Sep-15 08:25N 44°10' E 028°39'0 0.0
2017-Sep-15 07:58N 44°10' E 028°39'0 0.0
2017-Sep-15 07:28N 44°10' E 028°39'0 0.0
2017-Sep-15 06:58N 44°10' E 028°39'0 0.0
2017-Sep-15 06:28N 44°10' E 028°39'0 0.0
2017-Sep-15 05:58N 44°10' E 028°39'0 0.0
2017-Sep-15 05:28N 44°10' E 028°39'0 0.0
2017-Sep-15 04:58N 44°10' E 028°39'0 0.0
2017-Sep-15 04:19N 44°10' E 028°39'0 0.0
2017-Sep-15 03:40N 44°10' E 028°39'0 0.0
2017-Sep-15 03:19N 44°10' E 028°39'0 0.0
2017-Sep-15 02:55N 44°10' E 028°39'0 0.0
2017-Sep-15 02:22N 44°10' E 028°39'0 0.0
2017-Sep-15 01:52N 44°10' E 028°39'0 0.0
2017-Sep-15 01:22N 44°10' E 028°39'0 0.0
2017-Sep-15 00:58N 44°10' E 028°39'0 0.0
2017-Sep-15 00:28N 44°10' E 028°39'0 0.0
2017-Sep-14 23:58N 44°10' E 028°39'0 0.0
2017-Sep-14 23:28N 44°10' E 028°39'0 0.0
2017-Sep-14 22:58N 44°10' E 028°39'0 0.0
2017-Sep-14 22:28N 44°10' E 028°39'0 0.0
2017-Sep-14 21:58N 44°10' E 028°39'0 0.0
2017-Sep-14 21:28N 44°10' E 028°39'0 0.0
2017-Sep-14 20:58N 44°10' E 028°39'0 0.0
2017-Sep-14 20:28N 44°10' E 028°39'0 0.0
2017-Sep-14 19:58N 44°10' E 028°39'0 0.0
2017-Sep-14 19:28N 44°10' E 028°39'0 0.0
2017-Sep-14 18:58N 44°10' E 028°39'0 0.0
2017-Sep-14 18:28N 44°10' E 028°39'0 0.0
2017-Sep-14 17:58N 44°10' E 028°39'0 0.0
2017-Sep-14 17:25N 44°10' E 028°39'0 0.0
2017-Sep-14 16:58N 44°10' E 028°39'0 0.0
2017-Sep-14 16:28N 44°10' E 028°39'0 0.0
2017-Sep-14 15:58N 44°10' E 028°39'0 0.0
2017-Sep-14 15:28N 44°10' E 028°39'0 0.0
2017-Sep-14 14:58N 44°10' E 028°39'0 0.0
2017-Sep-14 14:28N 44°10' E 028°39'0 0.0
2017-Sep-14 13:58N 44°10' E 028°39'0 0.0
2017-Sep-14 13:25N 44°10' E 028°39'0 0.0
2017-Sep-14 12:58N 44°10' E 028°39'0 0.0
2017-Sep-14 12:28N 44°10' E 028°39'0 0.0
2017-Sep-14 11:58N 44°10' E 028°39'0 0.0
2017-Sep-14 11:28N 44°10' E 028°39'0 0.0
2017-Sep-14 10:52N 44°10' E 028°39'0 0.0
2017-Sep-14 10:28N 44°10' E 028°39'0 0.0
2017-Sep-14 09:58N 44°10' E 028°39'0 0.0
2017-Sep-14 09:28N 44°10' E 028°39'0 0.0
2017-Sep-14 08:58N 44°10' E 028°39'0 0.0
2017-Sep-14 08:28N 44°10' E 028°39'0 0.0
2017-Sep-14 07:58N 44°10' E 028°39'0 0.0
2017-Sep-14 07:28N 44°10' E 028°39'0 0.0
2017-Sep-14 06:58N 44°10' E 028°39'0 0.0
2017-Sep-14 06:28N 44°10' E 028°39'0 0.0
2017-Sep-14 05:58N 44°10' E 028°39'0 0.0
2017-Sep-14 05:28N 44°10' E 028°39'0 0.0
2017-Sep-14 04:58N 44°10' E 028°39'0 0.0
2017-Sep-14 04:28N 44°10' E 028°39'0 0.0
2017-Sep-14 03:58N 44°10' E 028°39'0 0.0
2017-Sep-14 03:22N 44°10' E 028°39'0 0.0
2017-Sep-14 02:55N 44°10' E 028°39'0 0.0
2017-Sep-14 02:28N 44°10' E 028°39'0 0.0
2017-Sep-14 01:58N 44°10' E 028°39'0 0.0
2017-Sep-14 01:28N 44°10' E 028°39'0 0.0
2017-Sep-14 00:58N 44°10' E 028°39'0 0.0
2017-Sep-14 00:28N 44°10' E 028°39'0 0.0
2017-Sep-13 23:58N 44°10' E 028°39'0 0.0
2017-Sep-13 23:28N 44°10' E 028°39'0 0.0
2017-Sep-13 22:58N 44°10' E 028°39'0 0.0
2017-Sep-13 22:28N 44°10' E 028°39'0 0.0
2017-Sep-13 21:58N 44°10' E 028°39'0 0.0
2017-Sep-13 21:28N 44°10' E 028°39'0 0.0
2017-Sep-13 20:58N 44°10' E 028°39'0 0.0
2017-Sep-13 20:28N 44°10' E 028°39'0 0.0
2017-Sep-13 19:58N 44°10' E 028°39'0 0.0
2017-Sep-13 19:28N 44°10' E 028°39'0 0.0
2017-Sep-13 18:52N 44°10' E 028°39'0 0.0
2017-Sep-13 18:28N 44°10' E 028°39'0 0.0
2017-Sep-13 17:58N 44°10' E 028°39'0 0.0
2017-Sep-13 17:28N 44°10' E 028°39'0 0.0
2017-Sep-13 16:58N 44°10' E 028°39'0 0.0
2017-Sep-13 16:28N 44°10' E 028°39'0 0.0
2017-Sep-13 15:58N 44°10' E 028°39'0 0.0
2017-Sep-13 15:28N 44°10' E 028°39'0 0.0
2017-Sep-13 14:55N 44°10' E 028°39'0 0.0
2017-Sep-13 14:28N 44°10' E 028°39'0 0.0
2017-Sep-13 13:58N 44°10' E 028°39'0 0.0
2017-Sep-13 13:28N 44°10' E 028°39'0 0.0
2017-Sep-13 12:55N 44°10' E 028°39'0 0.0
2017-Sep-13 12:28N 44°10' E 028°39'0 0.0
2017-Sep-13 11:58N 44°10' E 028°39'0 0.0
2017-Sep-13 11:28N 44°10' E 028°39'0 0.0
2017-Sep-13 10:58N 44°10' E 028°39'0 0.0
2017-Sep-13 10:28N 44°10' E 028°39'0 0.0
2017-Sep-13 09:58N 44°10' E 028°39'0 0.0
2017-Sep-13 09:28N 44°10' E 028°39'0 0.0
2017-Sep-13 08:55N 44°10' E 028°39'0 0.0
2017-Sep-13 08:28N 44°10' E 028°39'0 0.0
2017-Sep-13 07:55N 44°10' E 028°39'0 0.0
2017-Sep-13 07:28N 44°10' E 028°39'0 0.0
2017-Sep-13 06:58N 44°10' E 028°39'0 0.0
2017-Sep-13 06:28N 44°10' E 028°39'0 0.0
2017-Sep-13 05:58N 44°10' E 028°39'0 0.0
2017-Sep-13 05:28N 44°10' E 028°39'0 0.0
2017-Sep-13 04:58N 44°10' E 028°39'0 0.0
2017-Sep-13 04:28N 44°10' E 028°39'0 0.0
2017-Sep-13 03:58N 44°10' E 028°39'0 0.0
2017-Sep-13 03:28N 44°10' E 028°39'0 0.0
2017-Sep-13 02:58N 44°10' E 028°39'0 0.0
2017-Sep-13 02:28N 44°10' E 028°39'0 0.0
2017-Sep-13 01:58N 44°10' E 028°39'0 0.0
2017-Sep-13 01:28N 44°10' E 028°39'0 0.0
2017-Sep-13 00:55N 44°10' E 028°39'0 0.0
2017-Sep-13 00:28N 44°10' E 028°39'0 0.0
2017-Sep-12 23:58N 44°10' E 028°39'0 0.0
2017-Sep-12 23:28N 44°10' E 028°39'0 0.0
2017-Sep-12 22:58N 44°10' E 028°39'0 0.0
2017-Sep-12 22:28N 44°10' E 028°39'0 0.0
2017-Sep-12 21:58N 44°10' E 028°39'0 0.0
2017-Sep-12 21:28N 44°10' E 028°39'0 0.0
2017-Sep-12 20:58N 44°10' E 028°39'0 0.0
2017-Sep-12 20:28N 44°10' E 028°39'0 0.0
2017-Sep-12 19:58N 44°10' E 028°39'0 0.0
2017-Sep-12 19:28N 44°10' E 028°39'0 0.0
2017-Sep-12 18:58N 44°10' E 028°39'0 0.0
2017-Sep-12 18:28N 44°10' E 028°39'0 0.0
2017-Sep-12 17:58N 44°10' E 028°39'0 0.3
2017-Sep-12 17:30N 44°10' E 028°39'1 2.4
2017-Sep-12 17:00N 44°09' E 028°40'2 4.2
2017-Sep-12 16:30N 44°07' E 028°42'3 5.6
2017-Sep-12 16:00N 44°05' E 028°44'3 6.1
2017-Sep-12 15:30N 44°08' E 028°47'0 0.2
2017-Sep-12 14:58N 44°08' E 028°47'0 0.1
2017-Sep-12 14:28N 44°08' E 028°47'0 0.0
2017-Sep-12 13:58N 44°08' E 028°47'0 0.0
2017-Sep-12 13:28N 44°08' E 028°47'0 0.0
2017-Sep-12 12:58N 44°08' E 028°47'0 0.0
2017-Sep-12 12:28N 44°08' E 028°47'0 0.1
2017-Sep-12 11:58N 44°08' E 028°47'0 0.0
2017-Sep-12 11:28N 44°08' E 028°47'0 0.0
2017-Sep-12 10:58N 44°08' E 028°47'0 0.1
2017-Sep-12 10:28N 44°08' E 028°47'0 0.0
2017-Sep-12 09:58N 44°08' E 028°47'0 0.0
2017-Sep-12 09:28N 44°08' E 028°47'0 0.1
2017-Sep-12 08:58N 44°08' E 028°47'0 0.0
2017-Sep-12 08:28N 44°08' E 028°47'0 0.0
2017-Sep-12 07:58N 44°08' E 028°47'0 0.1
2017-Sep-12 07:28N 44°08' E 028°47'0 0.1
2017-Sep-12 06:58N 44°08' E 028°47'0 0.0
2017-Sep-12 06:28N 44°08' E 028°47'0 0.0
2017-Sep-12 05:46N 44°08' E 028°47'0 0.1
2017-Sep-12 05:28N 44°08' E 028°47'0 0.0
2017-Sep-12 04:58N 44°08' E 028°47'0 0.1
2017-Sep-12 04:28N 44°08' E 028°47'0 0.0
2017-Sep-12 03:58N 44°08' E 028°47'0 0.1
2017-Sep-12 03:28N 44°08' E 028°47'0 0.1
2017-Sep-12 02:58N 44°08' E 028°47'0 0.0
2017-Sep-12 02:28N 44°08' E 028°47'0 0.0
2017-Sep-12 01:52N 44°08' E 028°47'0 0.1
2017-Sep-12 01:28N 44°08' E 028°47'0 0.0
2017-Sep-12 00:58N 44°08' E 028°47'0 0.0
2017-Sep-12 00:28N 44°08' E 028°47'0 0.0
2017-Sep-11 23:58N 44°08' E 028°47'0 0.0
2017-Sep-11 23:28N 44°08' E 028°47'0 0.0
2017-Sep-11 22:55N 44°08' E 028°47'0 0.1
2017-Sep-11 22:28N 44°08' E 028°47'0 0.0
2017-Sep-11 21:58N 44°08' E 028°47'0 0.0
2017-Sep-11 21:28N 44°08' E 028°47'0 0.0
2017-Sep-11 20:58N 44°08' E 028°47'0 0.0
2017-Sep-11 20:28N 44°08' E 028°47'0 0.0
2017-Sep-11 19:58N 44°08' E 028°47'0 0.0
2017-Sep-11 19:25N 44°08' E 028°47'0 0.0
2017-Sep-11 18:58N 44°08' E 028°47'0 0.0
2017-Sep-11 18:19N 44°08' E 028°47'0 0.0
2017-Sep-11 17:58N 44°08' E 028°47'0 0.0
2017-Sep-11 17:25N 44°08' E 028°47'0 0.0
2017-Sep-11 16:58N 44°08' E 028°47'0 0.0
2017-Sep-11 16:28N 44°08' E 028°47'0 0.0
2017-Sep-11 15:58N 44°08' E 028°47'0 0.1
2017-Sep-11 15:25N 44°08' E 028°47'0 0.0
2017-Sep-11 14:58N 44°08' E 028°47'0 0.1
2017-Sep-11 14:28N 44°08' E 028°47'0 0.0
2017-Sep-11 13:58N 44°08' E 028°47'0 0.1
2017-Sep-11 13:25N 44°08' E 028°47'0 0.1
2017-Sep-11 12:58N 44°08' E 028°47'0 0.1
2017-Sep-11 12:28N 44°08' E 028°47'0 0.0
2017-Sep-11 11:58N 44°08' E 028°47'0 0.0
2017-Sep-11 11:28N 44°08' E 028°47'0 0.0
2017-Sep-11 10:58N 44°08' E 028°47'0 0.0
2017-Sep-11 10:28N 44°08' E 028°47'0 0.0
2017-Sep-11 09:58N 44°08' E 028°47'0 0.0
2017-Sep-11 09:28N 44°08' E 028°47'0 0.0
2017-Sep-11 08:46N 44°08' E 028°47'0 0.0
2017-Sep-11 08:28N 44°08' E 028°47'0 0.0
2017-Sep-11 07:58N 44°08' E 028°47'0 0.0
2017-Sep-11 07:28N 44°08' E 028°47'0 0.0
2017-Sep-11 06:58N 44°08' E 028°47'0 0.0
2017-Sep-11 06:28N 44°08' E 028°47'0 0.0
2017-Sep-11 05:58N 44°08' E 028°47'0 0.0
2017-Sep-11 05:28N 44°08' E 028°47'0 0.0
2017-Sep-11 04:58N 44°08' E 028°47'0 0.0
2017-Sep-11 04:28N 44°08' E 028°47'0 0.0
2017-Sep-11 03:58N 44°08' E 028°47'0 0.1
2017-Sep-11 03:28N 44°08' E 028°47'0 0.0
2017-Sep-11 02:58N 44°08' E 028°47'0 0.0
2017-Sep-11 02:28N 44°08' E 028°47'0 0.0
2017-Sep-11 01:55N 44°08' E 028°47'0 0.0
2017-Sep-11 01:28N 44°08' E 028°47'0 0.0
2017-Sep-11 00:58N 44°08' E 028°47'0 0.0
2017-Sep-11 00:28N 44°08' E 028°47'0 0.0
2017-Sep-10 23:58N 44°08' E 028°47'0 0.0
2017-Sep-10 23:25N 44°08' E 028°47'0 0.0
2017-Sep-10 22:58N 44°08' E 028°47'0 0.0
2017-Sep-10 22:28N 44°08' E 028°47'0 0.0
2017-Sep-10 21:58N 44°08' E 028°47'0 0.1
2017-Sep-10 21:28N 44°08' E 028°47'0 0.1
2017-Sep-10 20:55N 44°08' E 028°47'0 0.1
2017-Sep-10 20:28N 44°08' E 028°47'0 0.1
2017-Sep-10 19:55N 44°08' E 028°47'0 0.1
2017-Sep-10 19:25N 44°08' E 028°47'  

Dump ship's entire track history